createdAt,value
2019-01-05T00:01:35.684Z,5.07
2019-01-05T00:04:25.898Z,4.40
2019-01-05T00:07:18.237Z,5.63
2019-01-05T00:10:21.454Z,5.30
2019-01-05T00:13:18.771Z,4.77
2019-01-05T00:16:08.202Z,5.33
2019-01-05T00:18:59.469Z,5.40
2019-01-05T00:21:50.091Z,5.43
2019-01-05T00:24:39.765Z,8.30
2019-01-05T00:27:34.024Z,5.90
2019-01-05T00:30:34.017Z,5.43
2019-01-05T00:33:24.159Z,5.60
2019-01-05T00:36:42.260Z,5.13
2019-01-05T00:39:35.182Z,5.77
2019-01-05T00:42:29.688Z,4.67
2019-01-05T00:45:28.357Z,4.90
2019-01-05T00:48:19.583Z,5.90
2019-01-05T00:51:11.185Z,4.23
2019-01-05T00:54:02.552Z,4.60
2019-01-05T00:57:11.316Z,5.20
2019-01-05T01:00:08.121Z,4.90
2019-01-05T01:03:00.247Z,4.90
2019-01-05T01:05:49.966Z,5.23
2019-01-05T01:08:47.168Z,5.17
2019-01-05T01:11:53.062Z,4.70
2019-01-05T01:14:56.161Z,5.03
2019-01-05T01:17:59.114Z,6.10
2019-01-05T01:21:03.739Z,6.20
2019-01-05T01:23:55.148Z,5.77
2019-01-05T01:26:55.210Z,6.87
2019-01-05T01:29:41.576Z,5.70
2019-01-05T01:32:31.008Z,5.43
2019-01-05T01:35:23.597Z,5.20
2019-01-05T01:38:48.224Z,5.60
2019-01-05T01:41:58.022Z,6.63
2019-01-05T01:45:04.482Z,5.57
2019-01-05T01:47:55.981Z,5.73
2019-01-05T01:50:46.039Z,6.63
2019-01-05T01:53:40.636Z,4.93
2019-01-05T01:56:36.153Z,4.93
2019-01-05T01:59:36.394Z,4.87
2019-01-05T02:02:43.565Z,4.30
2019-01-05T02:05:33.700Z,5.20
2019-01-05T02:08:25.701Z,5.50
2019-01-05T02:11:16.967Z,5.57
2019-01-05T02:14:14.224Z,5.30
2019-01-05T02:17:39.995Z,5.30
2019-01-05T02:20:45.355Z,5.03
2019-01-05T02:24:05.947Z,5.60
2019-01-05T02:27:54.306Z,5.07
2019-01-05T02:31:39.576Z,4.03
2019-01-05T02:35:26.477Z,3.93
2019-01-05T02:39:02.917Z,5.70
2019-01-05T02:43:08.791Z,4.30
2019-01-05T02:47:00.053Z,7.50
2019-01-05T02:50:25.773Z,7.13
2019-01-05T02:53:46.736Z,6.10
2019-01-05T02:57:18.656Z,5.40
2019-01-05T03:00:54.117Z,5.60
2019-01-05T03:04:17.740Z,5.50
2019-01-05T03:08:16.064Z,4.73
2019-01-05T03:11:50.777Z,5.10
2019-01-05T03:15:35.253Z,5.40
2019-01-05T03:19:12.059Z,4.83
2019-01-05T03:22:49.761Z,5.07
2019-01-05T03:26:21.997Z,4.53
2019-01-05T03:30:16.208Z,4.57
2019-01-05T03:33:45.060Z,4.60
2019-01-05T03:37:19.877Z,3.77
2019-01-05T03:40:53.638Z,4.30
2019-01-05T03:44:28.759Z,4.47
2019-01-05T03:48:00.459Z,5.10
2019-01-05T03:51:58.920Z,5.43
2019-01-05T03:55:29.815Z,4.60
2019-01-05T03:59:16.287Z,4.87
2019-01-05T04:02:46.063Z,4.20
2019-01-05T04:06:12.079Z,4.73
2019-01-05T04:09:43.840Z,5.30
2019-01-05T04:13:19.624Z,5.97
2019-01-05T04:16:35.926Z,5.53
2019-01-05T04:20:15.406Z,4.50
2019-01-05T04:23:33.872Z,5.40
2019-01-05T04:27:24.331Z,4.67
2019-01-05T04:30:55.666Z,5.03
2019-01-05T04:34:20.891Z,6.00
2019-01-05T04:37:57.889Z,6.10
2019-01-05T04:41:15.079Z,6.37
2019-01-05T04:44:59.647Z,6.63
2019-01-05T04:48:18.937Z,5.73
2019-01-05T04:51:58.201Z,5.37
2019-01-05T04:55:46.697Z,5.23
2019-01-05T04:59:28.905Z,5.07
2019-01-05T05:02:57.439Z,5.03
2019-01-05T05:06:21.942Z,4.10
2019-01-05T05:09:51.106Z,11.67
2019-01-05T05:13:32.697Z,13.23
2019-01-05T05:16:52.922Z,7.40
2019-01-05T05:20:39.226Z,5.43
2019-01-05T05:24:24.550Z,5.73
2019-01-05T05:28:01.376Z,4.40
2019-01-05T05:31:53.707Z,5.00
2019-01-05T05:35:25.027Z,4.87
2019-01-05T05:38:59.451Z,4.77
2019-01-05T05:42:33.627Z,6.13
2019-01-05T05:46:14.103Z,5.50
2019-01-05T05:49:38.425Z,4.63
2019-01-05T05:53:09.258Z,4.00
2019-01-05T05:56:45.024Z,3.90
2019-01-05T06:00:09.593Z,4.13
2019-01-05T06:03:41.563Z,4.63
2019-01-05T06:06:55.791Z,4.73
2019-01-05T06:10:28.812Z,4.70
2019-01-05T06:17:44.865Z,4.17
2019-01-05T06:21:02.082Z,4.57
2019-01-05T06:24:23.852Z,4.60
2019-01-05T06:27:54.263Z,4.80
2019-01-05T06:31:36.934Z,6.53
2019-01-05T06:35:30.178Z,6.27
2019-01-05T06:39:06.955Z,5.47
2019-01-05T06:42:51.974Z,5.30
2019-01-05T06:46:28.547Z,6.10
2019-01-05T06:49:58.987Z,4.40
2019-01-05T06:57:10.409Z,4.33
2019-01-05T07:00:48.300Z,4.20
2019-01-05T07:04:10.357Z,4.07
2019-01-05T07:07:38.554Z,3.80
2019-01-05T07:11:23.354Z,4.07
2019-01-05T07:14:48.117Z,4.90
2019-01-05T07:18:30.082Z,6.10
2019-01-05T07:21:54.318Z,4.50
2019-01-05T07:25:32.454Z,4.83
2019-01-05T07:29:02.964Z,4.83
2019-01-05T07:32:35.095Z,4.23
2019-01-05T07:35:55.194Z,4.20
2019-01-05T07:39:32.980Z,4.93
2019-01-05T07:43:27.026Z,3.70
2019-01-05T07:47:17.934Z,4.20
2019-01-05T07:50:43.517Z,4.27
2019-01-05T07:54:15.865Z,3.80
2019-01-05T07:57:44.596Z,3.83
2019-01-05T08:01:23.733Z,3.60
2019-01-05T08:04:57.285Z,4.80
2019-01-05T08:08:44.485Z,4.07
2019-01-05T08:12:12.457Z,4.33
2019-01-05T08:15:29.869Z,4.23
2019-01-05T08:19:13.493Z,4.20
2019-01-05T08:22:54.442Z,3.40
2019-01-05T08:26:11.117Z,4.00
2019-01-05T08:29:40.058Z,4.00
2019-01-05T08:33:35.585Z,4.73
2019-01-05T08:37:10.296Z,4.63
2019-01-05T08:41:06.449Z,4.00
2019-01-05T08:45:03.693Z,3.50
2019-01-05T08:48:44.615Z,3.13
2019-01-05T08:52:05.613Z,3.30
2019-01-05T08:55:58.814Z,2.80
2019-01-05T08:59:42.790Z,2.93
2019-01-05T09:03:05.111Z,2.70
2019-01-05T09:06:46.917Z,3.73
2019-01-05T09:10:12.784Z,3.30
2019-01-05T09:13:47.220Z,3.13
2019-01-05T09:17:15.274Z,2.67
2019-01-05T09:20:43.860Z,3.10
2019-01-05T09:24:26.452Z,3.23
2019-01-05T09:27:43.497Z,2.80
2019-01-05T09:31:18.287Z,2.73
2019-01-05T09:34:44.325Z,3.00
2019-01-05T09:38:41.677Z,2.90
2019-01-05T09:42:33.097Z,2.87
2019-01-05T09:46:09.182Z,2.73
2019-01-05T09:49:52.961Z,3.10
2019-01-05T09:53:31.073Z,3.07
2019-01-05T09:57:14.382Z,3.80
2019-01-05T10:01:07.384Z,3.43
2019-01-05T10:04:44.422Z,3.73
2019-01-05T10:08:07.464Z,3.90
2019-01-05T10:11:46.985Z,3.47
2019-01-05T10:15:15.825Z,3.43
2019-01-05T10:18:53.350Z,3.20
2019-01-05T10:22:26.894Z,3.17
2019-01-05T10:25:47.557Z,3.33
2019-01-05T10:29:31.782Z,2.90
2019-01-05T10:32:56.600Z,3.00
2019-01-05T10:36:27.083Z,3.73
2019-01-05T10:40:10.206Z,3.90
2019-01-05T10:43:38.869Z,3.43
2019-01-05T10:47:06.713Z,3.35
2019-01-05T10:50:50.368Z,3.43
2019-01-05T10:54:29.804Z,3.17
2019-01-05T10:58:16.565Z,3.10
2019-01-05T11:01:48.962Z,3.10
2019-01-05T11:05:08.745Z,3.33
2019-01-05T11:08:46.973Z,3.17
2019-01-05T11:12:05.849Z,3.50
2019-01-05T11:15:56.944Z,3.37
2019-01-05T11:19:37.649Z,3.90
2019-01-05T11:23:13.905Z,3.63
2019-01-05T11:26:58.058Z,5.07
2019-01-05T11:30:51.830Z,4.00
2019-01-05T11:34:25.210Z,4.60
2019-01-05T11:37:52.989Z,4.33
2019-01-05T11:41:29.950Z,4.80
2019-01-05T11:44:50.496Z,4.00
2019-01-05T11:48:25.130Z,4.43
2019-01-05T11:52:09.495Z,4.47
2019-01-05T11:55:35.737Z,4.63
2019-01-05T11:58:59.225Z,5.13
2019-01-05T12:02:19.867Z,5.13
2019-01-05T12:05:46.870Z,4.93
2019-01-05T12:09:46.031Z,4.17
2019-01-05T12:13:30.151Z,6.13
2019-01-05T12:17:07.505Z,4.90
2019-01-05T12:20:57.237Z,6.13
2019-01-05T12:24:40.378Z,6.03
2019-01-05T12:28:09.067Z,8.13
2019-01-05T12:31:36.236Z,7.13
2019-01-05T12:35:21.896Z,6.40
2019-01-05T12:38:53.681Z,7.23
2019-01-05T12:42:24.285Z,5.67
2019-01-05T12:46:09.064Z,9.57
2019-01-05T12:49:48.909Z,8.67
2019-01-05T12:53:15.176Z,9.23
2019-01-05T12:56:45.737Z,8.10
2019-01-05T13:00:26.045Z,7.80
2019-01-05T13:04:00.050Z,8.43
2019-01-05T13:07:28.879Z,8.20
2019-01-05T13:11:00.836Z,7.43
2019-01-05T13:14:28.789Z,8.90
2019-01-05T13:18:00.970Z,9.43
2019-01-05T13:21:35.571Z,7.40
2019-01-05T13:24:50.265Z,7.97
2019-01-05T13:28:11.173Z,8.73
2019-01-05T13:31:55.019Z,8.97
2019-01-05T13:35:16.617Z,8.77
2019-01-05T13:39:15.841Z,8.90
2019-01-05T13:42:43.014Z,7.47
2019-01-05T13:46:19.309Z,7.87
2019-01-05T13:49:48.731Z,7.47
2019-01-05T13:53:16.949Z,8.27
2019-01-05T13:56:22.614Z,9.90
2019-01-05T13:59:16.635Z,10.37
2019-01-05T14:02:11.169Z,9.70
2019-01-05T14:05:05.442Z,10.00
2019-01-05T14:07:59.631Z,9.87
2019-01-05T14:10:51.904Z,9.63
2019-01-05T14:13:45.717Z,10.20
2019-01-05T14:16:51.841Z,10.50
2019-01-05T14:19:57.344Z,10.13
2019-01-05T14:22:48.690Z,9.43
2019-01-05T14:25:41.178Z,9.77
2019-01-05T14:28:30.713Z,10.40
2019-01-05T14:31:20.752Z,10.97
2019-01-05T14:34:11.885Z,10.70
2019-01-05T14:37:23.872Z,11.63
2019-01-05T14:40:33.456Z,11.53
2019-01-05T14:43:25.519Z,12.93
2019-01-05T14:46:21.929Z,12.83
2019-01-05T14:49:13.028Z,12.03
2019-01-05T14:52:11.869Z,12.40
2019-01-05T14:55:11.849Z,11.47
2019-01-05T14:58:02.582Z,11.47
2019-01-05T15:00:54.895Z,11.53
2019-01-05T15:03:44.183Z,14.23
2019-01-05T15:06:52.811Z,12.33
2019-01-05T15:09:37.984Z,11.80
2019-01-05T15:12:28.131Z,11.73
2019-01-05T15:15:22.337Z,13.13
2019-01-05T15:18:11.787Z,11.83
2019-01-05T15:21:03.174Z,12.93
2019-01-05T15:23:52.669Z,12.70
2019-01-05T15:26:56.114Z,12.57
2019-01-05T15:29:58.657Z,12.10
2019-01-05T15:33:05.645Z,13.17
2019-01-05T15:36:03.135Z,11.90
2019-01-05T15:39:16.250Z,11.60
2019-01-05T15:42:20.731Z,13.17
2019-01-05T15:45:10.321Z,11.83
2019-01-05T15:48:00.307Z,12.40
2019-01-05T15:51:01.482Z,12.83
2019-01-05T15:53:52.968Z,13.90
2019-01-05T15:56:51.185Z,13.33
2019-01-05T15:59:43.027Z,13.50
2019-01-05T16:02:34.976Z,10.83
2019-01-05T16:05:27.382Z,11.20
2019-01-05T16:08:16.955Z,12.93
2019-01-05T16:11:06.477Z,11.33
2019-01-05T16:14:00.637Z,12.33
2019-01-05T16:16:51.819Z,12.27
2019-01-05T16:19:59.725Z,12.30
2019-01-05T16:22:49.922Z,11.90
2019-01-05T16:25:39.846Z,10.30
2019-01-05T16:28:31.425Z,10.03
2019-01-05T16:31:40.947Z,10.07
2019-01-05T16:34:50.434Z,12.07
2019-01-05T16:37:36.983Z,11.20
2019-01-05T16:43:27.244Z,10.67
2019-01-05T16:46:18.626Z,8.77
2019-01-05T16:49:24.969Z,9.40
2019-01-05T16:52:26.224Z,10.23
2019-01-05T16:55:23.920Z,10.30
2019-01-05T16:58:27.194Z,10.00
2019-01-05T17:01:22.603Z,11.53
2019-01-05T17:04:15.739Z,9.75
2019-01-05T17:07:09.543Z,10.57
2019-01-05T17:09:59.263Z,10.48
2019-01-05T17:12:49.036Z,8.37
2019-01-05T17:15:44.226Z,9.50
2019-01-05T17:18:38.817Z,8.47
2019-01-05T17:21:33.085Z,9.98
2019-01-05T17:24:24.683Z,8.90
2019-01-05T17:27:14.600Z,8.63
2019-01-05T17:30:15.577Z,7.73
2019-01-05T17:33:07.153Z,10.13
2019-01-05T17:35:57.192Z,9.28
2019-01-05T17:38:48.751Z,8.75
2019-01-05T17:41:39.880Z,8.95
2019-01-05T17:44:44.176Z,9.45
2019-01-05T17:47:34.362Z,8.18
2019-01-05T17:50:32.163Z,8.05
2019-01-05T17:53:38.723Z,8.30
2019-01-05T17:56:26.490Z,7.53
2019-01-05T17:59:21.647Z,7.28
2019-01-05T18:02:11.804Z,7.57
2019-01-05T18:05:03.140Z,7.10
2019-01-05T18:08:00.811Z,8.55
2019-01-05T18:11:05.508Z,8.30
2019-01-05T18:14:12.722Z,8.03
2019-01-05T18:17:04.397Z,8.15
2019-01-05T18:19:55.090Z,9.13
2019-01-05T18:22:45.452Z,6.53
2019-01-05T18:25:49.154Z,8.08
2019-01-05T18:28:39.458Z,6.80
2019-01-05T18:31:39.806Z,8.18
2019-01-05T18:34:43.553Z,7.65
2019-01-05T18:37:34.665Z,5.97
2019-01-05T18:40:25.415Z,7.53
2019-01-05T18:43:26.805Z,8.38
2019-01-05T18:46:17.157Z,7.80
2019-01-05T18:49:07.185Z,7.37
2019-01-05T18:52:04.717Z,8.45
2019-01-05T18:54:54.736Z,8.13
2019-01-05T18:58:04.439Z,7.72
2019-01-05T19:00:54.439Z,7.25
2019-01-05T19:03:39.983Z,7.42
2019-01-05T19:06:47.104Z,8.95
2019-01-05T19:09:40.033Z,8.10
2019-01-05T19:12:40.521Z,6.85
2019-01-05T19:15:50.228Z,7.08
2019-01-05T19:18:40.514Z,7.60
2019-01-05T19:24:37.472Z,6.35
2019-01-05T19:27:32.480Z,6.30
2019-01-05T19:30:23.049Z,6.62
2019-01-05T19:33:31.069Z,8.28
2019-01-05T19:36:33.554Z,7.00
2019-01-05T19:39:25.356Z,7.72
2019-01-05T19:42:22.976Z,7.97
2019-01-05T19:45:36.690Z,7.10
2019-01-05T19:48:38.577Z,7.37
2019-01-05T19:51:32.573Z,6.90
2019-01-05T19:54:33.109Z,6.87
2019-01-05T19:57:39.474Z,7.05
2019-01-05T20:00:56.559Z,6.47
2019-01-05T20:04:39.564Z,6.72
2019-01-05T20:07:51.225Z,6.50
2019-01-05T20:10:45.247Z,7.08
2019-01-05T20:13:57.571Z,6.50
2019-01-05T20:17:01.705Z,6.43
2019-01-05T20:20:00.950Z,6.58
2019-01-05T20:23:06.752Z,7.45
2019-01-05T20:26:21.804Z,6.62
2019-01-05T20:29:22.613Z,6.92
2019-01-05T20:32:22.115Z,6.83
2019-01-05T20:35:07.455Z,6.90
2019-01-05T20:37:57.305Z,6.80
2019-01-05T20:40:47.567Z,6.87
2019-01-05T20:43:37.402Z,6.50
2019-01-05T20:46:27.137Z,6.72
2019-01-05T20:49:17.324Z,6.03
2019-01-05T20:52:15.026Z,6.15
2019-01-05T20:55:06.784Z,6.92
2019-01-05T20:57:57.136Z,6.95
2019-01-05T21:01:03.936Z,7.65
2019-01-05T21:04:04.307Z,6.60
2019-01-05T21:06:55.857Z,7.22
2019-01-05T21:10:05.773Z,7.15
2019-01-05T21:13:16.748Z,6.30
2019-01-05T21:16:08.657Z,9.10
2019-01-05T21:18:58.283Z,7.17
2019-01-05T21:21:49.868Z,7.08
2019-01-05T21:24:40.879Z,6.40
2019-01-05T21:27:46.057Z,7.15
2019-01-05T21:30:35.372Z,6.20
2019-01-05T21:33:29.415Z,8.10
2019-01-05T21:36:18.960Z,10.07
2019-01-05T21:39:25.664Z,7.05
2019-01-05T21:42:15.256Z,6.70
2019-01-05T21:45:14.091Z,5.72
2019-01-05T21:48:17.979Z,6.28
2019-01-05T21:51:08.190Z,6.83
2019-01-05T21:54:03.518Z,6.70
2019-01-05T21:56:57.735Z,7.90
2019-01-05T21:59:52.855Z,7.33
2019-01-05T22:02:43.360Z,7.10
2019-01-05T22:05:33.220Z,7.65
2019-01-05T22:08:26.422Z,7.80
2019-01-05T22:11:18.542Z,6.53
2019-01-05T22:14:11.744Z,6.73
2019-01-05T22:17:15.395Z,6.27
2019-01-05T22:20:20.365Z,7.33
2019-01-05T22:23:14.930Z,8.40
2019-01-05T22:26:05.194Z,7.08
2019-01-05T22:28:56.769Z,6.90
2019-01-05T22:31:47.184Z,7.17
2019-01-05T22:34:39.591Z,8.43
2019-01-05T22:37:34.796Z,7.40
2019-01-05T22:40:20.437Z,6.67
2019-01-05T22:43:10.634Z,6.40
2019-01-05T22:45:59.097Z,7.47
2019-01-05T22:49:08.761Z,7.37
2019-01-05T22:52:15.616Z,7.03
2019-01-05T22:55:06.249Z,7.70
2019-01-05T22:58:08.734Z,7.43
2019-01-05T23:00:58.904Z,7.77
2019-01-05T23:04:05.238Z,7.30
2019-01-05T23:06:55.043Z,7.77
2019-01-05T23:09:44.559Z,8.53
2019-01-05T23:12:35.550Z,8.30
2019-01-05T23:15:35.422Z,8.33
2019-01-05T23:18:36.824Z,7.67
2019-01-05T23:21:38.002Z,8.57
2019-01-05T23:24:57.693Z,8.80
2019-01-05T23:28:09.678Z,8.20
2019-01-05T23:31:16.594Z,8.47
2019-01-05T23:34:15.098Z,9.43
2019-01-05T23:37:05.585Z,9.90
2019-01-05T23:40:13.164Z,9.63
2019-01-05T23:43:09.545Z,10.57
2019-01-05T23:46:07.319Z,9.60
2019-01-05T23:48:54.046Z,9.27
2019-01-05T23:51:43.606Z,9.80
2019-01-05T23:54:43.323Z,9.63
2019-01-05T23:57:39.155Z,7.93
